Time;durP1;ratioP1;P1;durP2;ratioP2;P2;SDS_P1;SDS_P2;PMS_P1;PMS_P2;Temp;Humidity;BMP_temperature;BMP_pressure;BME280_temperature;BME280_humidity;BME280_pressure;Samples;Min_cycle;Max_cycle;Signal;HPM_P1;HPM_P2
2022/06/05 00:01:24;;;;;;;0.60;0.57;;;12.20;99.90;;;;;;5096997;28;20048;-73
2022/06/05 00:03:55;;;;;;;0.30;0.30;;;12.20;99.90;;;;;;5097496;28;20043;-75
2022/06/05 00:06:48;;;;;;;0.63;0.63;;;12.20;99.90;;;;;;5097393;28;20095;-75
2022/06/05 00:09:22;;;;;;;0.63;0.60;;;12.10;99.90;;;;;;5097151;28;20399;-73
2022/06/05 00:12:11;;;;;;;1.15;1.05;;;12.10;99.90;;;;;;5096714;28;20131;-72
2022/06/05 00:14:38;;;;;;;0.52;0.52;;;12.00;99.90;;;;;;5097245;28;20044;-74
2022/06/05 00:17:09;;;;;;;;;;;12.10;99.90;;;;;;5097200;28;20040;-73
2022/06/05 00:19:37;;;;;;;0.40;0.40;;;12.10;99.90;;;;;;5096770;28;19930;-73
2022/06/05 00:22:03;;;;;;;0.40;0.40;;;12.10;99.90;;;;;;5096782;28;20123;-73
2022/06/05 00:24:30;;;;;;;0.60;0.60;;;12.00;99.90;;;;;;5096696;28;20040;-74
2022/06/05 00:27:04;;;;;;;0.50;0.50;;;12.00;99.90;;;;;;5096729;28;20040;-75
2022/06/05 00:29:36;;;;;;;0.50;0.50;;;12.00;99.90;;;;;;5096556;28;20048;-74
2022/06/05 00:32:13;;;;;;;0.80;0.80;;;12.00;99.90;;;;;;5096671;28;20051;-75
2022/06/05 00:34:38;;;;;;;0.40;0.40;;;11.90;99.90;;;;;;5096314;28;20051;-74
2022/06/05 00:37:23;;;;;;;1.25;0.70;;;11.90;99.90;;;;;;5096569;28;20396;-75
2022/06/05 00:40:03;;;;;;;0.82;0.82;;;11.90;99.90;;;;;;5095927;28;20403;-74
2022/06/05 00:42:32;;;;;;;0.60;0.60;;;11.90;99.90;;;;;;5095757;28;20364;-73
2022/06/05 00:45:10;;;;;;;1.35;1.25;;;11.80;99.90;;;;;;5096355;28;20046;-73
2022/06/05 00:47:36;;;;;;;0.45;0.45;;;11.80;99.90;;;;;;5096246;28;20044;-75
2022/06/05 00:50:08;;;;;;;0.65;0.65;;;11.80;99.90;;;;;;5096265;28;20048;-74
2022/06/05 00:52:37;;;;;;;1.13;1.05;;;11.80;99.90;;;;;;5096147;28;20086;-75
2022/06/05 00:55:05;;;;;;;0.40;0.40;;;11.90;99.90;;;;;;5095993;28;20472;-73
2022/06/05 00:57:33;;;;;;;0.63;0.63;;;11.80;99.90;;;;;;5096235;28;20044;-75
2022/06/05 01:00:01;;;;;;;0.43;0.43;;;11.80;99.90;;;;;;5096025;28;20043;-76
2022/06/05 01:02:28;;;;;;;2.92;1.60;;;11.80;99.90;;;;;;5096660;28;20144;-73
2022/06/05 01:04:54;;;;;;;0.40;0.40;;;11.80;99.90;;;;;;5095843;28;20074;-76
2022/06/05 01:07:21;;;;;;;0.40;0.40;;;11.80;99.90;;;;;;5095787;28;20044;-73
2022/06/05 01:09:49;;;;;;;0.30;0.30;;;11.80;99.90;;;;;;5096022;28;20044;-74
2022/06/05 01:12:23;;;;;;;0.40;0.40;;;11.80;99.90;;;;;;5095737;28;20052;-75
2022/06/05 01:15:05;;;;;;;0.60;0.60;;;11.80;99.90;;;;;;5096424;28;20070;-73
2022/06/05 01:18:08;;;;;;;0.50;0.50;;;11.70;99.90;;;;;;5095162;28;20472;-75
2022/06/05 01:20:56;;;;;;;0.70;0.70;;;11.80;99.90;;;;;;5095786;28;20044;-74
2022/06/05 01:23:58;;;;;;;0.40;0.40;;;11.70;99.90;;;;;;5095705;28;20036;-75
2022/06/05 01:26:29;;;;;;;0.85;0.85;;;11.80;99.90;;;;;;5095739;28;20417;-77
2022/06/05 01:29:01;;;;;;;0.60;0.60;;;11.80;99.90;;;;;;5095623;28;20077;-74
2022/06/05 01:31:48;;;;;;;25.90;1.52;;;11.70;99.90;;;;;;5095518;28;20044;-74
2022/06/05 01:34:32;;;;;;;0.40;0.40;;;11.70;99.90;;;;;;5095416;28;20557;-76
2022/06/05 01:37:06;;;;;;;0.40;0.40;;;11.60;99.90;;;;;;5095458;28;20510;-74
2022/06/05 01:39:41;;;;;;;0.40;0.40;;;11.60;99.90;;;;;;5095398;28;20127;-76
2022/06/05 01:42:25;;;;;;;0.50;0.50;;;12.00;99.90;;;;;;5094893;28;20122;-74
2022/06/05 01:44:57;;;;;;;0.50;0.50;;;11.60;99.90;;;;;;5095132;28;20040;-75
2022/06/05 01:47:34;;;;;;;0.40;0.40;;;11.60;99.90;;;;;;5095230;28;20044;-74
2022/06/05 01:50:10;;;;;;;0.55;0.55;;;11.60;99.90;;;;;;5095190;28;20365;-75
2022/06/05 01:52:47;;;;;;;0.40;0.40;;;11.60;99.90;;;;;;5095339;28;20153;-73
2022/06/05 01:55:20;;;;;;;0.60;0.60;;;11.60;99.90;;;;;;5095236;28;20181;-76
2022/06/05 01:57:47;;;;;;;0.75;0.70;;;11.60;99.90;;;;;;5094954;28;20044;-76
2022/06/05 02:00:22;;;;;;;0.43;0.43;;;11.60;99.90;;;;;;5094861;28;20044;-76
2022/06/05 02:02:58;;;;;;;0.40;0.40;;;11.60;99.90;;;;;;5094803;28;20044;-74
2022/06/05 02:05:49;;;;;;;0.50;0.50;;;11.60;99.90;;;;;;5094764;28;20053;-74
2022/06/05 02:08:25;;;;;;;0.50;0.50;;;11.60;99.90;;;;;;5094291;28;20055;-76
2022/06/05 02:11:02;;;;;;;0.93;0.93;;;11.60;99.90;;;;;;5094703;28;20051;-73
2022/06/05 02:13:28;;;;;;;0.47;0.47;;;11.60;99.90;;;;;;5094725;28;20066;-75
2022/06/05 02:15:54;;;;;;;0.40;0.40;;;11.60;99.90;;;;;;5095028;28;20048;-74
2022/06/05 02:18:20;;;;;;;0.40;0.40;;;11.60;99.90;;;;;;5094263;28;20105;-75
2022/06/05 02:20:46;;;;;;;0.60;0.60;;;11.60;99.90;;;;;;5094262;28;20062;-74
2022/06/05 02:23:16;;;;;;;0.40;0.40;;;11.60;99.90;;;;;;5094447;28;20317;-74
2022/06/05 02:25:42;;;;;;;0.40;0.40;;;11.60;99.90;;;;;;5094866;28;20391;-73
2022/06/05 02:28:12;;;;;;;0.40;0.40;;;11.60;99.90;;;;;;5094777;28;20040;-73
2022/06/05 02:30:55;;;;;;;0.40;0.40;;;11.70;99.90;;;;;;5094343;28;20051;-72
2022/06/05 02:33:51;;;;;;;0.60;0.60;;;11.60;99.90;;;;;;5094209;28;20047;-73
2022/06/05 02:36:32;;;;;;;0.60;0.60;;;11.60;99.90;;;;;;5094324;28;20051;-74
2022/06/05 02:39:10;;;;;;;0.65;0.65;;;11.60;99.90;;;;;;5094547;28;20050;-74
2022/06/05 02:41:42;;;;;;;0.63;0.63;;;11.60;99.90;;;;;;5094288;28;20044;-74
2022/06/05 02:44:29;;;;;;;0.50;0.50;;;11.60;99.90;;;;;;5094216;28;20162;-75
2022/06/05 02:47:32;;;;;;;0.57;0.57;;;11.60;99.90;;;;;;5094101;28;20050;-74
2022/06/05 02:50:15;;;;;;;0.40;0.40;;;11.60;99.90;;;;;;5093988;28;20048;-72
2022/06/05 02:52:41;;;;;;;0.50;0.50;;;11.60;99.90;;;;;;5094011;28;20044;-71
2022/06/05 02:55:13;;;;;;;0.40;0.40;;;11.50;99.90;;;;;;5094013;28;20051;-73
2022/06/05 02:57:41;;;;;;;0.40;0.40;;;11.60;99.90;;;;;;5093962;28;20122;-73
2022/06/05 03:00:13;;;;;;;0.70;0.70;;;11.50;99.90;;;;;;5094044;28;20104;-73
2022/06/05 03:05:23;;;;;;;0.50;0.50;;;11.60;99.90;;;;;;5093929;28;20052;-72
2022/06/05 03:07:49;;;;;;;0.40;0.40;;;11.40;99.90;;;;;;5094291;28;20097;-74
2022/06/05 03:10:15;;;;;;;0.47;0.47;;;11.60;99.90;;;;;;5093802;28;20484;-74
2022/06/05 03:12:40;;;;;;;0.57;0.57;;;11.80;99.90;;;;;;5093781;28;20548;-74
2022/06/05 03:15:07;;;;;;;0.50;0.50;;;11.50;99.90;;;;;;5093778;28;20135;-74
2022/06/05 03:17:32;;;;;;;1.00;0.85;;;11.60;99.90;;;;;;5093492;28;20048;-73
2022/06/05 03:19:58;;;;;;;0.50;0.50;;;11.90;99.90;;;;;;5093758;28;20039;-75
2022/06/05 03:22:25;;;;;;;0.40;0.40;;;11.70;99.90;;;;;;5093763;28;20048;-75
2022/06/05 03:24:51;;;;;;;1.27;0.73;;;11.60;99.90;;;;;;5094061;28;20044;-75
2022/06/05 03:27:17;;;;;;;0.75;0.75;;;11.60;99.90;;;;;;5093937;28;20040;-75
2022/06/05 03:29:42;;;;;;;0.50;0.50;;;11.60;99.90;;;;;;5093519;28;20044;-73
2022/06/05 03:32:08;;;;;;;0.40;0.40;;;11.70;99.90;;;;;;5097080;28;20051;-74
2022/06/05 03:34:34;;;;;;;1.08;1.05;;;11.80;99.90;;;;;;5097569;28;20501;-73
2022/06/05 03:37:00;;;;;;;1.47;0.77;;;11.70;99.90;;;;;;5097730;28;20044;-74
2022/06/05 03:39:26;;;;;;;1.17;1.15;;;11.80;99.90;;;;;;5097967;28;20040;-75
2022/06/05 03:41:51;;;;;;;2.28;1.05;;;11.90;99.90;;;;;;5097686;28;20066;-73
2022/06/05 03:44:17;;;;;;;0.40;0.40;;;11.80;99.90;;;;;;5097499;28;20040;-73
2022/06/05 03:46:42;;;;;;;0.40;0.40;;;11.80;99.90;;;;;;5097457;28;20051;-74
2022/06/05 03:49:10;;;;;;;0.40;0.40;;;11.80;99.90;;;;;;5097374;28;20127;-75
2022/06/05 03:51:37;;;;;;;0.43;0.43;;;11.90;99.90;;;;;;5097675;28;20098;-73
2022/06/05 03:54:03;;;;;;;0.40;0.40;;;12.00;99.90;;;;;;5097199;28;20075;-75
2022/06/05 03:56:29;;;;;;;0.40;0.40;;;11.90;99.90;;;;;;5097664;28;20040;-73
2022/06/05 03:58:56;;;;;;;0.40;0.40;;;12.00;99.90;;;;;;5097348;28;20040;-75
2022/06/05 04:01:23;;;;;;;;;;;12.00;99.90;;;;;;5097607;28;20044;-74
2022/06/05 04:03:49;;;;;;;0.60;0.60;;;12.00;99.90;;;;;;5097114;28;19975;-74
2022/06/05 04:06:17;;;;;;;0.40;0.40;;;12.40;99.90;;;;;;5097044;28;20102;-72
2022/06/05 04:08:43;;;;;;;0.77;0.77;;;12.20;99.90;;;;;;5096825;28;20037;-75
2022/06/05 04:11:11;;;;;;;1.55;0.80;;;12.20;99.90;;;;;;5097064;28;20044;-73
2022/06/05 04:13:37;;;;;;;0.50;0.50;;;12.20;99.90;;;;;;5096695;28;20061;-74
2022/06/05 04:16:10;;;;;;;0.40;0.40;;;12.20;99.90;;;;;;5096958;28;20422;-74
2022/06/05 04:18:36;;;;;;;1.55;1.45;;;12.20;99.90;;;;;;5095471;28;20529;-75
2022/06/05 04:21:07;;;;;;;0.40;0.40;;;12.20;99.90;;;;;;5096941;28;20044;-76
2022/06/05 04:23:32;;;;;;;1.30;0.95;;;12.20;99.90;;;;;;5097263;28;20046;-73
2022/06/05 04:25:58;;;;;;;1.65;1.10;;;12.30;99.90;;;;;;5095754;28;20048;-72
2022/06/05 04:28:24;;;;;;;0.40;0.40;;;12.30;99.90;;;;;;5096794;28;20047;-73
2022/06/05 04:30:49;;;;;;;0.90;0.68;;;12.30;99.90;;;;;;5096686;28;20036;-73
2022/06/05 04:33:15;;;;;;;0.40;0.40;;;12.40;99.90;;;;;;5097066;28;20131;-73
2022/06/05 04:35:40;;;;;;;0.30;0.30;;;12.30;99.90;;;;;;5096574;28;20487;-75
2022/06/05 04:38:06;;;;;;;1.17;0.93;;;12.50;99.90;;;;;;5096935;28;20085;-74
2022/06/05 04:40:32;;;;;;;0.55;0.55;;;12.50;99.90;;;;;;5096399;28;20085;-72
2022/06/05 04:42:57;;;;;;;0.50;0.50;;;12.70;99.90;;;;;;5095735;28;20549;-75
2022/06/05 04:45:23;;;;;;;0.50;0.50;;;12.80;99.90;;;;;;5096352;28;20066;-74
2022/06/05 04:47:50;;;;;;;0.45;0.45;;;12.80;99.90;;;;;;5096289;28;20043;-73
2022/06/05 04:50:15;;;;;;;0.65;0.65;;;12.90;99.90;;;;;;5096326;28;20139;-75
2022/06/05 04:52:41;;;;;;;0.45;0.45;;;13.00;99.90;;;;;;5096440;28;20079;-73
2022/06/05 04:55:07;;;;;;;1.25;1.15;;;13.20;99.90;;;;;;5096094;28;20036;-76
2022/06/05 04:57:34;;;;;;;1.03;0.70;;;13.10;99.90;;;;;;5096205;28;20043;-72
2022/06/05 05:00:00;;;;;;;0.40;0.40;;;13.20;99.90;;;;;;5096163;28;20086;-76
2022/06/05 05:02:26;;;;;;;0.33;0.33;;;13.30;99.90;;;;;;5096100;28;20067;-74
2022/06/05 05:04:51;;;;;;;0.30;0.30;;;13.40;99.90;;;;;;5096095;28;20503;-75
2022/06/05 05:07:17;;;;;;;2.40;1.08;;;13.50;99.90;;;;;;5096377;28;20388;-74
2022/06/05 05:09:43;;;;;;;0.85;0.85;;;13.60;99.90;;;;;;5095707;28;20138;-75
2022/06/05 05:12:09;;;;;;;0.40;0.40;;;13.80;99.90;;;;;;5095634;28;20052;-74
2022/06/05 05:14:37;;;;;;;0.65;0.65;;;13.80;99.90;;;;;;5095861;28;20052;-73
2022/06/05 05:17:03;;;;;;;0.85;0.55;;;14.00;99.90;;;;;;5095420;28;20484;-72
2022/06/05 05:19:29;;;;;;;0.40;0.40;;;14.10;99.90;;;;;;5095766;28;20074;-74
2022/06/05 05:21:55;;;;;;;1.10;0.85;;;14.30;99.90;;;;;;5095629;28;20048;-74
2022/06/05 05:24:20;;;;;;;1.65;1.55;;;14.50;99.90;;;;;;5095670;28;20384;-74
2022/06/05 05:26:46;;;;;;;0.82;0.82;;;14.60;99.90;;;;;;5095563;28;20051;-75
2022/06/05 05:29:12;;;;;;;0.60;0.60;;;14.80;99.90;;;;;;5095492;28;20042;-75
2022/06/05 05:31:40;;;;;;;0.60;0.60;;;14.90;99.90;;;;;;5095528;28;20059;-75
2022/06/05 05:34:07;;;;;;;0.50;0.50;;;15.10;99.90;;;;;;5095433;28;20050;-74
2022/06/05 05:36:33;;;;;;;0.75;0.65;;;15.10;99.90;;;;;;5095710;28;20391;-74
2022/06/05 05:44:28;;;;;;;1.48;0.85;;;15.50;99.90;;;;;;5095154;28;20052;-76
2022/06/05 05:46:54;;;;;;;1.83;0.87;;;15.50;99.90;;;;;;5095298;28;20396;-76
2022/06/05 05:49:20;;;;;;;1.70;1.30;;;15.40;99.90;;;;;;5094950;28;20044;-73
2022/06/05 05:51:46;;;;;;;0.50;0.50;;;15.60;99.90;;;;;;5095153;28;20055;-76
2022/06/05 05:54:11;;;;;;;1.23;1.07;;;15.60;99.90;;;;;;5094135;28;20051;-74
2022/06/05 05:56:38;;;;;;;2.00;0.50;;;15.70;99.90;;;;;;5094934;28;20449;-74
2022/06/05 05:59:04;;;;;;;0.35;0.35;;;15.80;99.90;;;;;;5095412;28;20400;-76
2022/06/05 06:01:30;;;;;;;0.40;0.40;;;16.00;99.90;;;;;;5094907;28;20100;-74
2022/06/05 06:03:55;;;;;;;0.40;0.40;;;16.10;99.90;;;;;;5095011;28;20675;-74
2022/06/05 06:06:27;;;;;;;0.60;0.60;;;16.20;99.90;;;;;;5094963;28;20044;-74
2022/06/05 06:08:53;;;;;;;0.30;0.30;;;16.10;99.90;;;;;;5094747;28;20076;-76
2022/06/05 06:11:19;;;;;;;0.40;0.40;;;16.30;99.90;;;;;;5094700;28;20048;-76
2022/06/05 06:13:44;;;;;;;0.83;0.83;;;16.30;99.90;;;;;;5095622;28;20052;-76
2022/06/05 06:16:10;;;;;;;0.87;0.87;;;16.30;99.90;;;;;;5095082;28;20089;-75
2022/06/05 06:18:36;;;;;;;1.77;1.07;;;16.30;99.90;;;;;;5094920;28;20075;-74
2022/06/05 06:21:01;;;;;;;0.40;0.40;;;16.30;99.90;;;;;;5093708;28;20059;-73
2022/06/05 06:23:27;;;;;;;0.30;0.30;;;16.50;99.90;;;;;;5094731;28;20445;-77
2022/06/05 06:25:52;;;;;;;0.50;0.50;;;16.40;99.90;;;;;;5094176;28;20044;-77
2022/06/05 06:28:18;;;;;;;0.57;0.57;;;16.50;99.90;;;;;;5094541;28;20093;-76
2022/06/05 06:30:45;;;;;;;0.45;0.45;;;16.50;99.90;;;;;;5095013;28;20395;-74
2022/06/05 06:33:10;;;;;;;0.30;0.30;;;16.60;99.90;;;;;;5094850;28;20399;-78
2022/06/05 06:35:37;;;;;;;0.63;0.63;;;16.70;99.90;;;;;;5094334;28;20039;-76
2022/06/05 06:38:04;;;;;;;0.30;0.30;;;16.80;99.90;;;;;;5094403;28;20040;-77
2022/06/05 06:40:30;;;;;;;0.60;0.50;;;16.90;99.90;;;;;;5093270;28;20068;-77
2022/06/05 06:42:56;;;;;;;1.47;1.20;;;17.10;99.90;;;;;;5094305;28;20401;-75
2022/06/05 06:45:22;;;;;;;0.33;0.33;;;17.10;99.90;;;;;;5093942;28;20488;-76
2022/06/05 06:47:48;;;;;;;2.27;1.13;;;17.20;99.90;;;;;;5093817;28;20086;-75
2022/06/05 06:50:14;;;;;;;0.70;0.70;;;17.30;99.90;;;;;;5094066;28;20052;-74
2022/06/05 06:52:40;;;;;;;0.45;0.45;;;17.50;99.90;;;;;;5094051;28;20055;-74
2022/06/05 06:55:07;;;;;;;0.43;0.40;;;17.60;99.90;;;;;;5094011;28;20040;-76
2022/06/05 06:57:33;;;;;;;1.55;0.93;;;17.80;99.90;;;;;;5093789;28;20514;-77
2022/06/05 06:59:59;;;;;;;0.30;0.30;;;18.00;99.90;;;;;;5093735;28;20624;-76
2022/06/05 07:02:24;;;;;;;0.50;0.50;;;18.30;99.90;;;;;;5094192;28;20065;-76
2022/06/05 07:04:50;;;;;;;0.40;0.40;;;18.30;99.90;;;;;;5093888;28;20480;-75
2022/06/05 07:07:16;;;;;;;0.33;0.33;;;18.50;99.90;;;;;;5092944;28;20058;-75
2022/06/05 07:09:41;;;;;;;0.30;0.30;;;18.70;99.90;;;;;;5093805;28;20044;-77
2022/06/05 07:12:07;;;;;;;0.30;0.30;;;18.80;99.90;;;;;;5094211;28;20131;-75
2022/06/05 07:14:33;;;;;;;0.30;0.30;;;18.90;99.90;;;;;;5094685;28;20488;-76
2022/06/05 07:16:58;;;;;;;0.40;0.40;;;19.00;99.90;;;;;;5094165;28;20048;-75
2022/06/05 07:19:24;;;;;;;0.60;0.60;;;19.10;99.90;;;;;;5093764;28;20048;-77
2022/06/05 07:21:49;;;;;;;0.30;0.30;;;19.20;99.90;;;;;;5093734;28;20380;-74
2022/06/05 07:24:16;;;;;;;0.50;0.50;;;19.10;99.90;;;;;;5093646;28;20089;-74
2022/06/05 07:26:42;;;;;;;0.50;0.50;;;19.20;99.90;;;;;;5093631;28;20052;-76
2022/06/05 07:29:08;;;;;;;0.60;0.40;;;19.40;99.90;;;;;;5093655;28;20480;-76
2022/06/05 07:31:34;;;;;;;0.50;0.50;;;19.50;99.90;;;;;;5094105;28;20051;-74
2022/06/05 07:34:00;;;;;;;3.10;1.43;;;19.70;99.90;;;;;;5093852;28;20036;-73
2022/06/05 07:36:27;;;;;;;2.65;0.50;;;19.80;99.90;;;;;;5093257;28;20129;-75
2022/06/05 07:38:54;;;;;;;;;;;19.80;99.90;;;;;;5094005;28;20504;-75
2022/06/05 07:41:29;;;;;;;0.75;0.75;;;19.90;99.90;;;;;;5093384;28;19985;-77
2022/06/05 07:43:55;;;;;;;0.30;0.30;;;20.00;99.90;;;;;;5093542;28;20089;-76
2022/06/05 07:46:22;;;;;;;0.30;0.30;;;20.10;99.90;;;;;;5093519;28;20043;-74
2022/06/05 07:48:48;;;;;;;0.63;0.63;;;20.20;99.90;;;;;;5093226;28;20549;-75
2022/06/05 07:56:45;;;;;;;0.30;0.30;;;20.40;99.90;;;;;;5093393;28;20052;-74
2022/06/05 07:59:11;;;;;;;0.67;0.60;;;20.30;99.90;;;;;;5093424;28;20396;-77
2022/06/05 08:01:37;;;;;;;0.60;0.50;;;20.40;99.90;;;;;;5093302;28;20046;-76
2022/06/05 08:04:04;;;;;;;0.40;0.40;;;20.50;99.90;;;;;;5093570;28;20474;-76
2022/06/05 08:06:29;;;;;;;0.50;0.50;;;20.60;99.90;;;;;;5093198;28;20044;-76
2022/06/05 08:08:55;;;;;;;0.60;0.60;;;20.60;99.90;;;;;;5093274;28;20395;-76
2022/06/05 08:11:21;;;;;;;0.40;0.40;;;20.80;99.90;;;;;;5093243;28;20097;-77
2022/06/05 08:13:46;;;;;;;0.30;0.30;;;20.80;99.90;;;;;;5093288;28;20060;-74
2022/06/05 08:16:12;;;;;;;1.00;0.93;;;20.90;99.90;;;;;;5093311;28;20052;-74
2022/06/05 08:18:38;;;;;;;0.30;0.30;;;20.90;99.90;;;;;;5097150;28;20044;-73
2022/06/05 08:21:04;;;;;;;1.53;0.50;;;20.90;99.90;;;;;;5096797;28;20101;-74
2022/06/05 08:23:30;;;;;;;0.83;0.83;;;20.90;99.90;;;;;;5096718;28;20274;-75
2022/06/05 08:25:56;;;;;;;0.30;0.30;;;20.90;99.90;;;;;;5095501;28;20078;-74
2022/06/05 08:28:25;;;;;;;0.30;0.30;;;21.00;99.90;;;;;;5096731;28;20048;-76
2022/06/05 08:30:51;;;;;;;0.68;0.57;;;21.00;99.90;;;;;;5096791;28;20540;-76
2022/06/05 08:33:17;;;;;;;0.30;0.30;;;21.10;99.90;;;;;;5096538;28;20036;-74
2022/06/05 08:35:46;;;;;;;1.15;0.93;;;21.20;99.90;;;;;;5096462;28;20407;-76
2022/06/05 08:41:30;;;;;;;0.40;0.40;;;21.40;99.90;;;;;;5096415;28;20052;-76
2022/06/05 08:44:14;;;;;;;0.40;0.40;;;21.60;99.90;;;;;;5096337;28;20044;-75
2022/06/05 08:46:42;;;;;;;0.30;0.30;;;21.80;99.90;;;;;;5096253;28;20131;-76
2022/06/05 08:49:21;;;;;;;0.40;0.40;;;22.00;99.90;;;;;;5096280;28;20039;-74
2022/06/05 08:52:18;;;;;;;0.70;0.70;;;22.10;99.90;;;;;;5096348;28;20040;-76
2022/06/05 08:54:56;;;;;;;0.43;0.43;;;22.30;99.90;;;;;;5096531;28;20087;-76
2022/06/05 08:57:47;;;;;;;0.43;0.43;;;22.40;99.90;;;;;;5096499;28;20078;-77
2022/06/05 09:00:20;;;;;;;0.55;0.47;;;22.40;99.90;;;;;;5095990;28;20105;-76
2022/06/05 09:03:09;;;;;;;0.40;0.40;;;22.30;99.90;;;;;;5095929;28;20041;-74
2022/06/05 09:05:41;;;;;;;1.20;0.57;;;22.40;99.90;;;;;;5096253;28;20047;-76
2022/06/05 09:08:15;;;;;;;0.80;0.50;;;22.50;99.90;;;;;;5095981;28;20427;-77
2022/06/05 09:10:52;;;;;;;0.68;0.55;;;22.60;99.90;;;;;;5095649;28;20040;-74
2022/06/05 09:13:42;;;;;;;0.38;0.38;;;22.70;99.90;;;;;;5095920;28;20101;-75
2022/06/05 09:16:13;;;;;;;0.60;0.60;;;22.80;99.90;;;;;;5082033;28;20148;-76
2022/06/05 09:18:45;;;;;;;0.43;0.43;;;22.80;99.90;;;;;;5096010;28;20040;-77
2022/06/05 09:21:33;;;;;;;0.40;0.40;;;22.80;99.90;;;;;;5095830;28;20400;-77
2022/06/05 09:24:19;;;;;;;0.50;0.50;;;23.00;99.90;;;;;;5096076;28;20055;-73
2022/06/05 09:26:53;;;;;;;0.35;0.30;;;23.30;99.90;;;;;;5095596;28;20051;-77
2022/06/05 09:29:34;;;;;;;0.70;0.70;;;23.40;99.90;;;;;;5095675;28;20396;-75
2022/06/05 09:32:30;;;;;;;0.40;0.40;;;23.50;99.90;;;;;;5095471;28;20132;-75
2022/06/05 09:35:02;;;;;;;0.52;0.52;;;23.60;99.90;;;;;;5095736;28;20379;-74
2022/06/05 09:37:28;;;;;;;0.68;0.65;;;23.60;99.90;;;;;;5095430;28;20055;-75
2022/06/05 09:40:03;;;;;;;0.30;0.30;;;23.80;99.90;;;;;;5095240;28;20052;-76
2022/06/05 09:42:52;;;;;;;0.40;0.40;;;23.80;99.90;;;;;;5095056;28;20055;-77
2022/06/05 09:45:35;;;;;;;0.43;0.43;;;23.80;99.90;;;;;;5095018;28;20051;-78
2022/06/05 09:48:35;;;;;;;0.55;0.55;;;23.90;99.90;;;;;;5095236;28;20044;-76
2022/06/05 09:51:02;;;;;;;0.40;0.40;;;24.00;99.90;;;;;;5091038;28;20526;-74
2022/06/05 09:53:31;;;;;;;;;;;24.20;99.90;;;;;;5095112;28;20561;-74
2022/06/05 09:56:26;;;;;;;0.30;0.30;;;24.10;99.50;;;;;;5094671;28;20359;-74
2022/06/05 09:59:03;;;;;;;0.75;0.60;;;24.20;99.90;;;;;;5083792;28;20063;-74
2022/06/05 10:01:46;;;;;;;0.32;0.32;;;24.30;99.50;;;;;;5095307;28;20548;-75
2022/06/05 10:04:11;;;;;;;0.52;0.52;;;24.20;99.90;;;;;;5094899;28;20079;-78
2022/06/05 10:06:47;;;;;;;0.30;0.30;;;24.10;99.90;;;;;;5094679;28;20424;-77
2022/06/05 10:09:15;;;;;;;0.40;0.40;;;24.00;99.80;;;;;;5094751;28;20073;-77
2022/06/05 10:12:01;;;;;;;0.20;0.20;;;23.90;99.70;;;;;;5094326;28;20083;-76
2022/06/05 10:14:51;;;;;;;0.52;0.52;;;24.10;99.90;;;;;;5094212;28;20047;-77
2022/06/05 10:17:25;;;;;;;0.75;0.68;;;24.00;99.90;;;;;;5094905;28;20040;-75
2022/06/05 10:19:53;;;;;;;0.55;0.55;;;24.00;99.90;;;;;;5094635;28;20048;-79
2022/06/05 10:22:57;;;;;;;0.47;0.47;;;24.20;99.90;;;;;;5094397;28;20048;-77
2022/06/05 10:25:49;;;;;;;0.40;0.40;;;24.40;99.10;;;;;;5094469;28;20165;-75
2022/06/05 10:28:22;;;;;;;0.40;0.40;;;24.40;99.40;;;;;;5094194;28;20051;-75
2022/06/05 10:31:07;;;;;;;0.85;0.80;;;24.50;99.90;;;;;;5094288;28;20085;-74
2022/06/05 10:34:03;;;;;;;0.30;0.30;;;24.50;99.40;;;;;;5094628;28;20048;-77
2022/06/05 10:36:33;;;;;;;0.47;0.47;;;24.60;99.90;;;;;;5094250;28;20501;-76
2022/06/05 10:39:41;;;;;;;1.30;0.95;;;24.60;98.50;;;;;;5093673;28;20511;-75
2022/06/05 10:42:39;;;;;;;0.60;0.60;;;24.60;99.50;;;;;;5094226;28;20047;-77
2022/06/05 10:45:11;;;;;;;0.50;0.50;;;24.60;99.50;;;;;;5094223;28;20126;-77
2022/06/05 10:47:58;;;;;;;0.47;0.47;;;24.50;98.80;;;;;;5094417;28;20048;-76
2022/06/05 10:50:37;;;;;;;0.30;0.30;;;24.50;98.90;;;;;;5094805;28;20052;-76
2022/06/05 10:53:49;;;;;;;0.88;0.85;;;24.40;98.80;;;;;;5094522;28;20055;-76
2022/06/05 10:56:27;;;;;;;0.30;0.30;;;24.40;97.60;;;;;;5084077;28;20473;-77
2022/06/05 10:59:14;;;;;;;0.88;0.63;;;24.40;99.90;;;;;;5094227;28;20050;-75
2022/06/05 11:02:13;;;;;;;0.45;0.45;;;24.40;98.40;;;;;;5094127;28;20047;-76
2022/06/05 11:04:49;;;;;;;0.32;0.32;;;24.30;98.60;;;;;;5093978;28;20070;-78
2022/06/05 11:07:42;;;;;;;0.50;0.50;;;24.30;99.60;;;;;;5094089;28;20403;-74
2022/06/05 11:13:39;;;;;;;0.65;0.60;;;24.30;99.20;;;;;;5093777;28;20048;-78
2022/06/05 11:13:42;;;;;;;0.45;0.45;;;24.40;99.50;;;;;;5093552;28;20135;-76
2022/06/05 11:16:34;;;;;;;0.47;0.40;;;24.40;99.90;;;;;;5093701;28;20052;-76
2022/06/05 11:19:14;;;;;;;0.68;0.65;;;24.40;99.20;;;;;;5094089;28;20066;-74
2022/06/05 11:21:47;;;;;;;1.10;0.75;;;24.40;98.70;;;;;;5093831;28;20124;-75
2022/06/05 11:24:22;;;;;;;0.38;0.38;;;24.40;99.00;;;;;;5093709;28;20040;-73
2022/06/05 11:27:03;;;;;;;0.75;0.63;;;24.50;98.80;;;;;;5093546;28;20040;-74
2022/06/05 11:29:46;;;;;;;0.50;0.50;;;24.50;98.60;;;;;;5093734;28;20047;-78
2022/06/05 11:32:23;;;;;;;0.60;0.60;;;24.50;98.90;;;;;;5094012;28;20083;-76
2022/06/05 11:35:01;;;;;;;;;;;24.40;98.60;;;;;;5094005;28;20044;-78
2022/06/05 11:37:58;;;;;;;0.43;0.43;;;24.40;98.70;;;;;;5093457;28;20018;-74
2022/06/05 11:40:26;;;;;;;0.50;0.50;;;24.40;99.20;;;;;;5094090;28;20056;-75
2022/06/05 11:43:26;;;;;;;0.60;0.60;;;24.40;99.40;;;;;;5093927;28;20090;-76
2022/06/05 11:46:21;;;;;;;0.55;0.47;;;24.30;98.40;;;;;;5094022;28;20403;-76
2022/06/05 11:49:05;;;;;;;0.43;0.43;;;24.40;98.70;;;;;;5084231;28;20048;-75
2022/06/05 11:51:50;;;;;;;1.23;0.65;;;24.40;99.90;;;;;;5094258;28;20492;-78
2022/06/05 11:54:21;;;;;;;0.40;0.40;;;24.40;99.10;;;;;;5097679;28;20040;-75
2022/06/05 11:57:21;;;;;;;0.52;0.52;;;24.30;99.90;;;;;;5097604;28;20040;-75
2022/06/05 12:00:15;;;;;;;0.55;0.55;;;24.20;99.90;;;;;;5097730;28;20592;-78
2022/06/05 12:03:05;;;;;;;0.50;0.40;;;24.20;99.60;;;;;;5097554;28;20083;-76
2022/06/05 12:06:03;;;;;;;1.50;1.40;;;24.10;99.50;;;;;;5097613;28;20067;-75
2022/06/05 12:08:37;;;;;;;0.35;0.35;;;24.00;99.70;;;;;;5089918;28;20396;-77
2022/06/05 12:11:13;;;;;;;0.70;0.70;;;24.10;99.90;;;;;;5097390;28;20130;-76
2022/06/05 12:14:12;;;;;;;5.72;0.50;;;24.00;99.90;;;;;;5097480;28;20047;-79
2022/06/05 12:17:05;;;;;;;0.40;0.40;;;23.90;99.90;;;;;;5097246;28;20503;-76
2022/06/05 12:19:44;;;;;;;0.35;0.35;;;24.00;99.90;;;;;;5097981;28;20105;-76
2022/06/05 12:22:32;;;;;;;0.57;0.57;;;24.00;99.90;;;;;;5097832;28;20400;-76
2022/06/05 12:25:07;;;;;;;0.90;0.55;;;24.10;99.90;;;;;;5097214;28;20427;-75
2022/06/05 12:28:05;;;;;;;0.40;0.40;;;24.10;99.90;;;;;;5096998;28;20044;-76
2022/06/05 12:31:09;;;;;;;0.40;0.40;;;24.10;99.90;;;;;;5096705;28;20488;-74
2022/06/05 12:33:48;;;;;;;0.50;0.50;;;24.00;99.90;;;;;;5072463;28;20091;-74
2022/06/05 12:36:26;;;;;;;0.50;0.50;;;24.10;99.90;;;;;;5097017;28;20484;-73
2022/06/05 12:39:00;;;;;;;0.50;0.50;;;24.00;99.90;;;;;;5096901;28;20093;-74
2022/06/05 12:42:03;;;;;;;0.90;0.73;;;24.10;99.30;;;;;;5096821;28;20052;-75
2022/06/05 12:44:32;;;;;;;0.52;0.50;;;24.10;99.90;;;;;;5096487;28;20055;-76
2022/06/05 12:47:10;;;;;;;0.63;0.63;;;24.30;99.90;;;;;;5096762;28;20044;-76
2022/06/05 12:49:54;;;;;;;0.45;0.45;;;24.40;99.70;;;;;;5096281;28;20044;-76
2022/06/05 12:52:47;;;;;;;0.63;0.40;;;24.50;99.80;;;;;;5078541;28;20048;-75
2022/06/05 12:55:24;;;;;;;0.30;0.30;;;24.60;99.80;;;;;;5097006;28;20040;-76
2022/06/05 12:58:14;;;;;;;1.35;0.82;;;24.60;99.60;;;;;;5096042;28;20498;-75
2022/06/05 13:00:53;;;;;;;0.50;0.50;;;24.60;98.40;;;;;;5096487;28;20044;-77
2022/06/05 13:03:30;;;;;;;0.40;0.40;;;24.60;98.80;;;;;;5096070;28;20040;-77
2022/06/05 13:06:23;;;;;;;0.95;0.65;;;24.60;98.00;;;;;;5095447;28;20044;-76
2022/06/05 13:08:57;;;;;;;0.77;0.77;;;24.60;97.90;;;;;;5096248;28;20048;-75
2022/06/05 13:11:31;;;;;;;0.52;0.52;;;24.50;97.90;;;;;;5095912;28;20044;-76
2022/06/05 13:14:26;;;;;;;0.75;0.75;;;24.40;98.20;;;;;;5096873;28;20395;-75
2022/06/05 13:16:57;;;;;;;0.50;0.50;;;24.30;98.60;;;;;;5064454;28;20136;-77
2022/06/05 13:19:29;;;;;;;0.50;0.50;;;24.30;99.00;;;;;;5095962;28;20047;-78
2022/06/05 13:22:10;;;;;;;1.55;0.68;;;24.30;99.90;;;;;;5095873;28;20065;-75
2022/06/05 13:25:05;;;;;;;0.52;0.52;;;24.30;99.10;;;;;;5096193;28;20062;-76
2022/06/05 13:27:56;;;;;;;0.60;0.60;;;24.40;99.30;;;;;;5095762;28;20486;-76
2022/06/05 13:30:25;;;;;;;0.35;0.35;;;24.40;99.90;;;;;;5095669;28;20126;-78
2022/06/05 13:33:11;;;;;;;0.40;0.40;;;24.40;99.90;;;;;;5095684;28;20040;-75
2022/06/05 13:35:57;;;;;;;0.38;0.30;;;24.40;99.90;;;;;;5095691;28;20036;-75
2022/06/05 13:39:03;;;;;;;0.45;0.45;;;24.40;98.70;;;;;;5095710;28;20044;-74
2022/06/05 13:41:38;;;;;;;0.35;0.35;;;24.40;99.40;;;;;;5077471;28;20052;-76